sensor_id;sensor_type;location;lat;lon;timestamp;P1;durP1;ratioP1;P2;durP2;ratioP2
22357;SDS011;11346;50.150;8.150;2023-08-17T00:02:17;58.43;;;4.17;;
22357;SDS011;11346;50.150;8.150;2023-08-17T00:04:45;85.17;;;4.63;;
22357;SDS011;11346;50.150;8.150;2023-08-17T00:07:12;44.47;;;5.00;;
22357;SDS011;11346;50.150;8.150;2023-08-17T00:09:39;24.60;;;4.30;;
22357;SDS011;11346;50.150;8.150;2023-08-17T00:12:07;10.50;;;4.23;;
22357;SDS011;11346;50.150;8.150;2023-08-17T00:14:34;5.50;;;4.00;;
22357;SDS011;11346;50.150;8.150;2023-08-17T00:17:01;6.53;;;4.40;;
22357;SDS011;11346;50.150;8.150;2023-08-17T00:19:28;8.73;;;3.97;;
22357;SDS011;11346;50.150;8.150;2023-08-17T00:21:56;7.70;;;3.97;;
22357;SDS011;11346;50.150;8.150;2023-08-17T00:24:23;8.17;;;3.40;;
22357;SDS011;11346;50.150;8.150;2023-08-17T00:26:50;4.83;;;3.47;;
22357;SDS011;11346;50.150;8.150;2023-08-17T00:29:17;5.13;;;2.93;;
22357;SDS011;11346;50.150;8.150;2023-08-17T00:31:44;6.83;;;3.70;;
22357;SDS011;11346;50.150;8.150;2023-08-17T00:34:11;5.20;;;3.40;;
22357;SDS011;11346;50.150;8.150;2023-08-17T00:36:38;6.77;;;3.30;;
22357;SDS011;11346;50.150;8.150;2023-08-17T00:39:07;4.93;;;3.63;;
22357;SDS011;11346;50.150;8.150;2023-08-17T00:41:34;4.20;;;3.40;;
22357;SDS011;11346;50.150;8.150;2023-08-17T00:44:01;5.37;;;3.90;;
22357;SDS011;11346;50.150;8.150;2023-08-17T00:46:28;6.73;;;4.50;;
22357;SDS011;11346;50.150;8.150;2023-08-17T00:48:56;6.00;;;4.07;;
22357;SDS011;11346;50.150;8.150;2023-08-17T00:51:23;6.53;;;4.33;;
22357;SDS011;11346;50.150;8.150;2023-08-17T00:53:50;9.43;;;4.03;;
22357;SDS011;11346;50.150;8.150;2023-08-17T00:56:19;4.30;;;3.83;;
22357;SDS011;11346;50.150;8.150;2023-08-17T00:58:46;5.87;;;3.20;;
22357;SDS011;11346;50.150;8.150;2023-08-17T01:01:13;4.00;;;3.60;;
22357;SDS011;11346;50.150;8.150;2023-08-17T01:03:40;5.10;;;3.60;;
22357;SDS011;11346;50.150;8.150;2023-08-17T01:06:08;5.43;;;3.23;;
22357;SDS011;11346;50.150;8.150;2023-08-17T01:08:35;5.30;;;3.67;;
22357;SDS011;11346;50.150;8.150;2023-08-17T01:11:05;8.03;;;4.40;;
22357;SDS011;11346;50.150;8.150;2023-08-17T01:13:42;5.00;;;4.50;;
22357;SDS011;11346;50.150;8.150;2023-08-17T01:16:11;5.67;;;4.57;;
22357;SDS011;11346;50.150;8.150;2023-08-17T01:18:39;7.17;;;4.40;;
22357;SDS011;11346;50.150;8.150;2023-08-17T01:21:08;7.37;;;5.23;;
22357;SDS011;11346;50.150;8.150;2023-08-17T01:23:38;10.30;;;5.50;;
22357;SDS011;11346;50.150;8.150;2023-08-17T01:26:05;9.87;;;5.00;;
22357;SDS011;11346;50.150;8.150;2023-08-17T01:28:32;9.90;;;5.53;;
22357;SDS011;11346;50.150;8.150;2023-08-17T01:31:00;11.00;;;6.03;;
22357;SDS011;11346;50.150;8.150;2023-08-17T01:33:31;15.57;;;6.77;;
22357;SDS011;11346;50.150;8.150;2023-08-17T01:36:01;13.83;;;7.10;;
22357;SDS011;11346;50.150;8.150;2023-08-17T01:38:30;18.07;;;7.03;;
22357;SDS011;11346;50.150;8.150;2023-08-17T01:41:00;22.60;;;6.80;;
22357;SDS011;11346;50.150;8.150;2023-08-17T01:43:27;13.53;;;6.83;;
22357;SDS011;11346;50.150;8.150;2023-08-17T01:45:55;21.53;;;7.73;;
22357;SDS011;11346;50.150;8.150;2023-08-17T01:48:22;21.80;;;6.87;;
22357;SDS011;11346;50.150;8.150;2023-08-17T01:50:49;46.67;;;6.37;;
22357;SDS011;11346;50.150;8.150;2023-08-17T01:53:16;46.23;;;5.47;;
22357;SDS011;11346;50.150;8.150;2023-08-17T01:55:43;33.60;;;4.30;;
22357;SDS011;11346;50.150;8.150;2023-08-17T01:58:12;12.73;;;3.73;;
22357;SDS011;11346;50.150;8.150;2023-08-17T02:00:39;16.33;;;2.67;;
22357;SDS011;11346;50.150;8.150;2023-08-17T02:03:06;8.30;;;2.73;;
22357;SDS011;11346;50.150;8.150;2023-08-17T02:05:33;18.63;;;2.67;;
22357;SDS011;11346;50.150;8.150;2023-08-17T02:08:00;14.63;;;2.43;;
22357;SDS011;11346;50.150;8.150;2023-08-17T02:10:27;24.37;;;2.70;;
22357;SDS011;11346;50.150;8.150;2023-08-17T02:12:54;18.83;;;2.70;;
22357;SDS011;11346;50.150;8.150;2023-08-17T02:15:22;18.60;;;3.00;;
22357;SDS011;11346;50.150;8.150;2023-08-17T02:17:49;16.83;;;2.80;;
22357;SDS011;11346;50.150;8.150;2023-08-17T02:20:17;15.03;;;2.70;;
22357;SDS011;11346;50.150;8.150;2023-08-17T02:22:44;14.30;;;2.40;;
22357;SDS011;11346;50.150;8.150;2023-08-17T02:25:11;43.90;;;3.37;;
22357;SDS011;11346;50.150;8.150;2023-08-17T02:27:38;12.63;;;2.80;;
22357;SDS011;11346;50.150;8.150;2023-08-17T02:30:05;19.47;;;2.93;;
22357;SDS011;11346;50.150;8.150;2023-08-17T02:32:34;8.53;;;2.90;;
22357;SDS011;11346;50.150;8.150;2023-08-17T02:35:01;46.40;;;3.73;;
22357;SDS011;11346;50.150;8.150;2023-08-17T02:37:28;9.90;;;3.33;;
22357;SDS011;11346;50.150;8.150;2023-08-17T02:39:55;37.50;;;3.30;;
22357;SDS011;11346;50.150;8.150;2023-08-17T02:42:22;40.57;;;3.27;;
22357;SDS011;11346;50.150;8.150;2023-08-17T02:44:49;10.23;;;2.53;;
22357;SDS011;11346;50.150;8.150;2023-08-17T02:47:16;22.10;;;3.20;;
22357;SDS011;11346;50.150;8.150;2023-08-17T02:49:44;35.30;;;2.97;;
22357;SDS011;11346;50.150;8.150;2023-08-17T02:52:14;25.53;;;2.90;;
22357;SDS011;11346;50.150;8.150;2023-08-17T02:54:41;28.43;;;2.37;;
22357;SDS011;11346;50.150;8.150;2023-08-17T02:57:08;18.00;;;2.90;;
22357;SDS011;11346;50.150;8.150;2023-08-17T02:59:35;21.90;;;2.50;;
22357;SDS011;11346;50.150;8.150;2023-08-17T03:02:02;14.13;;;2.37;;
22357;SDS011;11346;50.150;8.150;2023-08-17T03:04:29;15.37;;;2.40;;
22357;SDS011;11346;50.150;8.150;2023-08-17T03:06:57;36.07;;;2.67;;
22357;SDS011;11346;50.150;8.150;2023-08-17T03:09:24;34.13;;;3.03;;
22357;SDS011;11346;50.150;8.150;2023-08-17T03:11:51;26.20;;;3.10;;
22357;SDS011;11346;50.150;8.150;2023-08-17T03:14:18;22.47;;;3.23;;
22357;SDS011;11346;50.150;8.150;2023-08-17T03:16:45;5.77;;;2.83;;
22357;SDS011;11346;50.150;8.150;2023-08-17T03:19:13;63.93;;;3.47;;
22357;SDS011;11346;50.150;8.150;2023-08-17T03:21:40;63.27;;;3.10;;
22357;SDS011;11346;50.150;8.150;2023-08-17T03:24:08;53.97;;;3.17;;
22357;SDS011;11346;50.150;8.150;2023-08-17T03:26:35;104.50;;;4.30;;
22357;SDS011;11346;50.150;8.150;2023-08-17T03:29:02;22.17;;;3.10;;
22357;SDS011;11346;50.150;8.150;2023-08-17T03:31:29;20.60;;;3.50;;
22357;SDS011;11346;50.150;8.150;2023-08-17T03:33:56;27.77;;;2.73;;
22357;SDS011;11346;50.150;8.150;2023-08-17T03:36:24;21.03;;;2.77;;
22357;SDS011;11346;50.150;8.150;2023-08-17T03:38:51;34.53;;;2.70;;
22357;SDS011;11346;50.150;8.150;2023-08-17T03:41:20;22.47;;;2.93;;
22357;SDS011;11346;50.150;8.150;2023-08-17T03:43:49;16.00;;;2.80;;
22357;SDS011;11346;50.150;8.150;2023-08-17T03:46:16;27.40;;;2.80;;
22357;SDS011;11346;50.150;8.150;2023-08-17T03:48:43;26.07;;;2.63;;
22357;SDS011;11346;50.150;8.150;2023-08-17T03:51:10;30.20;;;3.20;;
22357;SDS011;11346;50.150;8.150;2023-08-17T03:53:37;17.37;;;2.80;;
22357;SDS011;11346;50.150;8.150;2023-08-17T03:56:04;6.20;;;2.93;;
22357;SDS011;11346;50.150;8.150;2023-08-17T03:58:32;13.40;;;2.60;;
22357;SDS011;11346;50.150;8.150;2023-08-17T04:00:59;5.03;;;2.30;;
22357;SDS011;11346;50.150;8.150;2023-08-17T04:03:27;5.87;;;2.70;;
22357;SDS011;11346;50.150;8.150;2023-08-17T04:05:54;13.50;;;2.70;;
22357;SDS011;11346;50.150;8.150;2023-08-17T04:08:21;7.63;;;2.73;;
22357;SDS011;11346;50.150;8.150;2023-08-17T04:10:48;8.33;;;2.73;;
22357;SDS011;11346;50.150;8.150;2023-08-17T04:13:15;9.90;;;2.53;;
22357;SDS011;11346;50.150;8.150;2023-08-17T04:15:44;2.17;;;1.97;;
22357;SDS011;11346;50.150;8.150;2023-08-17T04:18:11;5.03;;;2.37;;
22357;SDS011;11346;50.150;8.150;2023-08-17T04:20:38;6.10;;;2.33;;
22357;SDS011;11346;50.150;8.150;2023-08-17T04:23:05;5.50;;;2.50;;
22357;SDS011;11346;50.150;8.150;2023-08-17T04:25:32;5.60;;;2.70;;
22357;SDS011;11346;50.150;8.150;2023-08-17T04:27:59;2.20;;;1.97;;
22357;SDS011;11346;50.150;8.150;2023-08-17T04:30:26;3.87;;;2.00;;
22357;SDS011;11346;50.150;8.150;2023-08-17T04:32:54;5.40;;;2.20;;
22357;SDS011;11346;50.150;8.150;2023-08-17T04:35:21;5.80;;;2.30;;
22357;SDS011;11346;50.150;8.150;2023-08-17T04:37:48;5.37;;;2.20;;
22357;SDS011;11346;50.150;8.150;2023-08-17T04:40:15;8.57;;;2.53;;
22357;SDS011;11346;50.150;8.150;2023-08-17T04:42:42;10.00;;;2.20;;
22357;SDS011;11346;50.150;8.150;2023-08-17T04:45:10;7.00;;;2.60;;
22357;SDS011;11346;50.150;8.150;2023-08-17T04:47:37;4.30;;;2.40;;
22357;SDS011;11346;50.150;8.150;2023-08-17T04:50:06;11.03;;;2.10;;
22357;SDS011;11346;50.150;8.150;2023-08-17T04:52:33;6.27;;;2.80;;
22357;SDS011;11346;50.150;8.150;2023-08-17T04:55:00;5.00;;;3.07;;
22357;SDS011;11346;50.150;8.150;2023-08-17T04:57:28;4.90;;;2.77;;
22357;SDS011;11346;50.150;8.150;2023-08-17T04:59:55;3.93;;;2.70;;
22357;SDS011;11346;50.150;8.150;2023-08-17T05:02:22;4.03;;;3.00;;
22357;SDS011;11346;50.150;8.150;2023-08-17T05:04:50;7.07;;;3.50;;
22357;SDS011;11346;50.150;8.150;2023-08-17T05:07:18;5.07;;;4.03;;
22357;SDS011;11346;50.150;8.150;2023-08-17T05:09:45;5.80;;;4.03;;
22357;SDS011;11346;50.150;8.150;2023-08-17T05:12:12;7.57;;;3.87;;
22357;SDS011;11346;50.150;8.150;2023-08-17T05:14:39;9.57;;;4.13;;
22357;SDS011;11346;50.150;8.150;2023-08-17T05:17:06;6.00;;;4.17;;
22357;SDS011;11346;50.150;8.150;2023-08-17T05:19:33;11.03;;;4.60;;
22357;SDS011;11346;50.150;8.150;2023-08-17T05:22:00;7.73;;;4.67;;
22357;SDS011;11346;50.150;8.150;2023-08-17T05:24:29;8.30;;;4.83;;
22357;SDS011;11346;50.150;8.150;2023-08-17T05:26:56;9.17;;;4.80;;
22357;SDS011;11346;50.150;8.150;2023-08-17T05:29:23;10.27;;;5.10;;
22357;SDS011;11346;50.150;8.150;2023-08-17T05:31:50;9.47;;;5.03;;
22357;SDS011;11346;50.150;8.150;2023-08-17T05:34:17;12.33;;;5.27;;
22357;SDS011;11346;50.150;8.150;2023-08-17T05:36:44;8.23;;;5.80;;
22357;SDS011;11346;50.150;8.150;2023-08-17T05:39:11;8.60;;;5.33;;
22357;SDS011;11346;50.150;8.150;2023-08-17T05:41:40;9.53;;;5.10;;
22357;SDS011;11346;50.150;8.150;2023-08-17T05:44:07;9.87;;;5.37;;
22357;SDS011;11346;50.150;8.150;2023-08-17T05:46:34;11.47;;;5.27;;
22357;SDS011;11346;50.150;8.150;2023-08-17T05:49:02;11.43;;;5.17;;
22357;SDS011;11346;50.150;8.150;2023-08-17T05:51:29;7.03;;;4.70;;
22357;SDS011;11346;50.150;8.150;2023-08-17T05:53:56;7.03;;;5.33;;
22357;SDS011;11346;50.150;8.150;2023-08-17T05:56:23;8.00;;;5.70;;
22357;SDS011;11346;50.150;8.150;2023-08-17T05:58:51;9.10;;;5.13;;
22357;SDS011;11346;50.150;8.150;2023-08-17T06:01:19;12.53;;;5.97;;
22357;SDS011;11346;50.150;8.150;2023-08-17T06:03:46;10.50;;;5.60;;
22357;SDS011;11346;50.150;8.150;2023-08-17T06:06:13;8.40;;;5.70;;
22357;SDS011;11346;50.150;8.150;2023-08-17T06:08:40;7.97;;;5.60;;
22357;SDS011;11346;50.150;8.150;2023-08-17T06:11:07;8.53;;;5.70;;
22357;SDS011;11346;50.150;8.150;2023-08-17T06:13:34;10.23;;;6.33;;
22357;SDS011;11346;50.150;8.150;2023-08-17T06:16:03;12.17;;;6.70;;
22357;SDS011;11346;50.150;8.150;2023-08-17T06:18:30;9.53;;;6.50;;
22357;SDS011;11346;50.150;8.150;2023-08-17T06:20:57;10.40;;;6.10;;
22357;SDS011;11346;50.150;8.150;2023-08-17T06:23:24;11.30;;;6.10;;
22357;SDS011;11346;50.150;8.150;2023-08-17T06:25:51;12.83;;;6.37;;
22357;SDS011;11346;50.150;8.150;2023-08-17T06:28:18;11.00;;;5.50;;
22357;SDS011;11346;50.150;8.150;2023-08-17T06:30:45;9.77;;;6.53;;
22357;SDS011;11346;50.150;8.150;2023-08-17T06:33:14;15.47;;;7.13;;
22357;SDS011;11346;50.150;8.150;2023-08-17T06:35:41;8.70;;;6.20;;
22357;SDS011;11346;50.150;8.150;2023-08-17T06:38:08;9.30;;;6.00;;
22357;SDS011;11346;50.150;8.150;2023-08-17T06:40:35;9.43;;;5.93;;
22357;SDS011;11346;50.150;8.150;2023-08-17T06:43:02;8.50;;;6.00;;
22357;SDS011;11346;50.150;8.150;2023-08-17T06:45:31;9.20;;;6.07;;
22357;SDS011;11346;50.150;8.150;2023-08-17T06:48:01;9.37;;;6.03;;
22357;SDS011;11346;50.150;8.150;2023-08-17T06:50:29;8.83;;;6.07;;
22357;SDS011;11346;50.150;8.150;2023-08-17T06:52:56;9.63;;;5.50;;
22357;SDS011;11346;50.150;8.150;2023-08-17T06:55:23;6.53;;;4.90;;
22357;SDS011;11346;50.150;8.150;2023-08-17T06:57:50;6.43;;;5.17;;
22357;SDS011;11346;50.150;8.150;2023-08-17T07:00:17;8.00;;;6.30;;
22357;SDS011;11346;50.150;8.150;2023-08-17T07:02:45;7.83;;;5.87;;
22357;SDS011;11346;50.150;8.150;2023-08-17T07:05:13;8.03;;;5.70;;
22357;SDS011;11346;50.150;8.150;2023-08-17T07:07:41;6.33;;;4.90;;
22357;SDS011;11346;50.150;8.150;2023-08-17T07:10:09;8.07;;;5.50;;
22357;SDS011;11346;50.150;8.150;2023-08-17T07:12:36;5.33;;;4.50;;
22357;SDS011;11346;50.150;8.150;2023-08-17T07:15:04;10.60;;;5.73;;
22357;SDS011;11346;50.150;8.150;2023-08-17T07:17:31;13.57;;;6.23;;
22357;SDS011;11346;50.150;8.150;2023-08-17T07:19:59;8.70;;;6.00;;
22357;SDS011;11346;50.150;8.150;2023-08-17T07:22:26;9.17;;;6.10;;
22357;SDS011;11346;50.150;8.150;2023-08-17T07:24:55;6.73;;;4.90;;
22357;SDS011;11346;50.150;8.150;2023-08-17T07:27:22;6.57;;;5.13;;
22357;SDS011;11346;50.150;8.150;2023-08-17T07:29:49;8.17;;;5.23;;
22357;SDS011;11346;50.150;8.150;2023-08-17T07:32:16;5.20;;;4.40;;
22357;SDS011;11346;50.150;8.150;2023-08-17T07:34:43;6.00;;;4.60;;
22357;SDS011;11346;50.150;8.150;2023-08-17T07:37:10;5.07;;;3.97;;
22357;SDS011;11346;50.150;8.150;2023-08-17T07:39:38;5.83;;;4.57;;
22357;SDS011;11346;50.150;8.150;2023-08-17T07:48:07;9.33;;;6.17;;
22357;SDS011;11346;50.150;8.150;2023-08-17T07:50:34;9.57;;;6.37;;
22357;SDS011;11346;50.150;8.150;2023-08-17T07:53:01;8.57;;;5.37;;
22357;SDS011;11346;50.150;8.150;2023-08-17T07:55:28;7.80;;;5.40;;
22357;SDS011;11346;50.150;8.150;2023-08-17T07:57:56;7.93;;;5.10;;
22357;SDS011;11346;50.150;8.150;2023-08-17T08:00:23;6.97;;;5.30;;
22357;SDS011;11346;50.150;8.150;2023-08-17T08:02:50;10.00;;;5.03;;
22357;SDS011;11346;50.150;8.150;2023-08-17T08:05:18;5.57;;;4.10;;
22357;SDS011;11346;50.150;8.150;2023-08-17T08:07:45;6.53;;;4.47;;
22357;SDS011;11346;50.150;8.150;2023-08-17T08:10:12;4.93;;;4.00;;
22357;SDS011;11346;50.150;8.150;2023-08-17T08:12:39;5.67;;;4.20;;
22357;SDS011;11346;50.150;8.150;2023-08-17T08:15:07;4.40;;;3.93;;
22357;SDS011;11346;50.150;8.150;2023-08-17T08:17:34;4.00;;;3.60;;
22357;SDS011;11346;50.150;8.150;2023-08-17T08:20:02;6.13;;;4.20;;
22357;SDS011;11346;50.150;8.150;2023-08-17T08:22:30;11.43;;;3.73;;
22357;SDS011;11346;50.150;8.150;2023-08-17T08:24:57;6.17;;;3.13;;
22357;SDS011;11346;50.150;8.150;2023-08-17T08:27:24;4.13;;;2.83;;
22357;SDS011;11346;50.150;8.150;2023-08-17T08:29:51;3.30;;;3.00;;
22357;SDS011;11346;50.150;8.150;2023-08-17T08:32:18;4.30;;;3.00;;
22357;SDS011;11346;50.150;8.150;2023-08-17T08:34:46;3.37;;;3.07;;
22357;SDS011;11346;50.150;8.150;2023-08-17T08:37:13;6.70;;;3.20;;
22357;SDS011;11346;50.150;8.150;2023-08-17T08:42:27;3.20;;;2.90;;
22357;SDS011;11346;50.150;8.150;2023-08-17T08:44:54;3.00;;;2.70;;
22357;SDS011;11346;50.150;8.150;2023-08-17T08:47:21;4.30;;;3.00;;
22357;SDS011;11346;50.150;8.150;2023-08-17T08:49:51;3.03;;;2.80;;
22357;SDS011;11346;50.150;8.150;2023-08-17T08:52:26;2.90;;;2.70;;
22357;SDS011;11346;50.150;8.150;2023-08-17T08:54:54;3.50;;;3.20;;
22357;SDS011;11346;50.150;8.150;2023-08-17T08:57:23;3.37;;;2.77;;
22357;SDS011;11346;50.150;8.150;2023-08-17T08:59:52;3.20;;;3.00;;
22357;SDS011;11346;50.150;8.150;2023-08-17T09:02:19;3.80;;;3.03;;
22357;SDS011;11346;50.150;8.150;2023-08-17T09:04:46;2.80;;;2.60;;
22357;SDS011;11346;50.150;8.150;2023-08-17T09:07:13;2.93;;;2.50;;
22357;SDS011;11346;50.150;8.150;2023-08-17T09:09:40;3.03;;;2.30;;
22357;SDS011;11346;50.150;8.150;2023-08-17T09:12:07;2.50;;;2.30;;
22357;SDS011;11346;50.150;8.150;2023-08-17T09:14:35;2.40;;;2.20;;
22357;SDS011;11346;50.150;8.150;2023-08-17T09:17:04;3.50;;;2.30;;
22357;SDS011;11346;50.150;8.150;2023-08-17T09:19:31;4.27;;;2.33;;
22357;SDS011;11346;50.150;8.150;2023-08-17T09:21:58;2.00;;;1.90;;
22357;SDS011;11346;50.150;8.150;2023-08-17T09:24:33;2.00;;;1.90;;
22357;SDS011;11346;50.150;8.150;2023-08-17T09:27:01;2.50;;;2.30;;
22357;SDS011;11346;50.150;8.150;2023-08-17T09:29:28;3.60;;;2.03;;
22357;SDS011;11346;50.150;8.150;2023-08-17T09:31:58;3.77;;;2.00;;
22357;SDS011;11346;50.150;8.150;2023-08-17T09:34:26;3.43;;;2.37;;
22357;SDS011;11346;50.150;8.150;2023-08-17T09:37:01;5.50;;;2.20;;
22357;SDS011;11346;50.150;8.150;2023-08-17T09:39:28;2.70;;;2.50;;
22357;SDS011;11346;50.150;8.150;2023-08-17T09:41:55;4.60;;;2.00;;
22357;SDS011;11346;50.150;8.150;2023-08-17T09:44:22;2.47;;;1.87;;
22357;SDS011;11346;50.150;8.150;2023-08-17T09:46:50;2.10;;;1.90;;
22357;SDS011;11346;50.150;8.150;2023-08-17T09:49:20;2.00;;;1.90;;
22357;SDS011;11346;50.150;8.150;2023-08-17T09:51:50;3.70;;;1.80;;
22357;SDS011;11346;50.150;8.150;2023-08-17T09:54:20;1.50;;;1.43;;
22357;SDS011;11346;50.150;8.150;2023-08-17T09:56:48;2.30;;;2.10;;
22357;SDS011;11346;50.150;8.150;2023-08-17T09:59:15;2.67;;;1.80;;
22357;SDS011;11346;50.150;8.150;2023-08-17T10:01:42;4.03;;;1.87;;
22357;SDS011;11346;50.150;8.150;2023-08-17T10:04:10;3.80;;;1.73;;
22357;SDS011;11346;50.150;8.150;2023-08-17T10:06:39;1.80;;;1.70;;
22357;SDS011;11346;50.150;8.150;2023-08-17T10:09:09;1.83;;;1.73;;
22357;SDS011;11346;50.150;8.150;2023-08-17T10:11:37;2.40;;;2.20;;
22357;SDS011;11346;50.150;8.150;2023-08-17T10:14:08;2.57;;;2.00;;
22357;SDS011;11346;50.150;8.150;2023-08-17T10:16:38;1.93;;;1.80;;
22357;SDS011;11346;50.150;8.150;2023-08-17T10:19:09;2.70;;;2.20;;
22357;SDS011;11346;50.150;8.150;2023-08-17T10:21:39;4.57;;;1.80;;
22357;SDS011;11346;50.150;8.150;2023-08-17T10:24:09;1.80;;;1.70;;
22357;SDS011;11346;50.150;8.150;2023-08-17T10:26:37;2.80;;;1.70;;
22357;SDS011;11346;50.150;8.150;2023-08-17T10:29:05;1.67;;;1.57;;
22357;SDS011;11346;50.150;8.150;2023-08-17T10:31:33;1.80;;;1.70;;
22357;SDS011;11346;50.150;8.150;2023-08-17T10:34:01;1.77;;;1.67;;
22357;SDS011;11346;50.150;8.150;2023-08-17T10:36:28;3.23;;;1.67;;
22357;SDS011;11346;50.150;8.150;2023-08-17T10:41:46;1.80;;;1.70;;
22357;SDS011;11346;50.150;8.150;2023-08-17T10:44:13;2.73;;;1.80;;
22357;SDS011;11346;50.150;8.150;2023-08-17T10:46:40;2.53;;;1.70;;
22357;SDS011;11346;50.150;8.150;2023-08-17T10:49:24;2.23;;;1.80;;
22357;SDS011;11346;50.150;8.150;2023-08-17T10:52:02;1.50;;;1.40;;
22357;SDS011;11346;50.150;8.150;2023-08-17T10:54:36;2.70;;;1.60;;
22357;SDS011;11346;50.150;8.150;2023-08-17T11:00:03;2.00;;;1.77;;
22357;SDS011;11346;50.150;8.150;2023-08-17T11:02:32;2.83;;;2.10;;
22357;SDS011;11346;50.150;8.150;2023-08-17T11:05:00;4.80;;;1.83;;
22357;SDS011;11346;50.150;8.150;2023-08-17T11:07:27;2.40;;;1.70;;
22357;SDS011;11346;50.150;8.150;2023-08-17T11:10:10;1.80;;;1.70;;
22357;SDS011;11346;50.150;8.150;2023-08-17T11:12:37;1.83;;;1.73;;
22357;SDS011;11346;50.150;8.150;2023-08-17T11:15:06;1.93;;;1.80;;
22357;SDS011;11346;50.150;8.150;2023-08-17T11:17:33;2.13;;;1.70;;
22357;SDS011;11346;50.150;8.150;2023-08-17T11:20:00;1.70;;;1.60;;
22357;SDS011;11346;50.150;8.150;2023-08-17T11:22:29;1.83;;;1.73;;
22357;SDS011;11346;50.150;8.150;2023-08-17T11:24:56;2.10;;;2.00;;
22357;SDS011;11346;50.150;8.150;2023-08-17T11:27:23;3.90;;;1.80;;
22357;SDS011;11346;50.150;8.150;2023-08-17T11:29:50;1.80;;;1.67;;
22357;SDS011;11346;50.150;8.150;2023-08-17T11:32:18;3.37;;;1.60;;
22357;SDS011;11346;50.150;8.150;2023-08-17T11:34:45;1.73;;;1.60;;
22357;SDS011;11346;50.150;8.150;2023-08-17T11:37:12;2.60;;;1.37;;
22357;SDS011;11346;50.150;8.150;2023-08-17T11:39:40;3.00;;;1.50;;
22357;SDS011;11346;50.150;8.150;2023-08-17T11:42:07;2.73;;;1.27;;
22357;SDS011;11346;50.150;8.150;2023-08-17T11:44:34;1.20;;;1.20;;
22357;SDS011;11346;50.150;8.150;2023-08-17T11:47:01;2.23;;;1.37;;
22357;SDS011;11346;50.150;8.150;2023-08-17T11:49:31;1.37;;;1.27;;
22357;SDS011;11346;50.150;8.150;2023-08-17T11:51:59;1.77;;;1.40;;
22357;SDS011;11346;50.150;8.150;2023-08-17T11:54:26;1.50;;;1.40;;
22357;SDS011;11346;50.150;8.150;2023-08-17T11:56:53;1.23;;;1.10;;
22357;SDS011;11346;50.150;8.150;2023-08-17T11:59:20;2.77;;;1.20;;
22357;SDS011;11346;50.150;8.150;2023-08-17T12:01:48;1.97;;;1.40;;
22357;SDS011;11346;50.150;8.150;2023-08-17T12:04:15;1.60;;;1.50;;
22357;SDS011;11346;50.150;8.150;2023-08-17T12:06:44;2.47;;;1.23;;
22357;SDS011;11346;50.150;8.150;2023-08-17T12:09:11;1.40;;;1.30;;
22357;SDS011;11346;50.150;8.150;2023-08-17T12:11:39;1.13;;;1.13;;
22357;SDS011;11346;50.150;8.150;2023-08-17T12:14:10;2.00;;;1.40;;
22357;SDS011;11346;50.150;8.150;2023-08-17T12:16:44;1.53;;;1.30;;
22357;SDS011;11346;50.150;8.150;2023-08-17T12:19:12;2.40;;;1.27;;
22357;SDS011;11346;50.150;8.150;2023-08-17T12:21:40;3.23;;;1.20;;
22357;SDS011;11346;50.150;8.150;2023-08-17T12:24:09;3.90;;;1.40;;
22357;SDS011;11346;50.150;8.150;2023-08-17T12:26:40;2.97;;;1.23;;
22357;SDS011;11346;50.150;8.150;2023-08-17T12:29:08;5.50;;;1.67;;
22357;SDS011;11346;50.150;8.150;2023-08-17T12:31:35;2.00;;;1.50;;
22357;SDS011;11346;50.150;8.150;2023-08-17T12:34:02;1.57;;;1.47;;
22357;SDS011;11346;50.150;8.150;2023-08-17T12:36:30;1.40;;;1.30;;
22357;SDS011;11346;50.150;8.150;2023-08-17T12:38:57;5.30;;;1.53;;
22357;SDS011;11346;50.150;8.150;2023-08-17T12:41:26;5.33;;;1.80;;
22357;SDS011;11346;50.150;8.150;2023-08-17T12:43:53;1.80;;;1.50;;
22357;SDS011;11346;50.150;8.150;2023-08-17T12:46:23;1.33;;;1.23;;
22357;SDS011;11346;50.150;8.150;2023-08-17T12:48:50;1.63;;;1.53;;
22357;SDS011;11346;50.150;8.150;2023-08-17T12:51:17;1.63;;;1.33;;
22357;SDS011;11346;50.150;8.150;2023-08-17T12:53:44;1.63;;;1.50;;
22357;SDS011;11346;50.150;8.150;2023-08-17T12:56:11;2.57;;;1.50;;
22357;SDS011;11346;50.150;8.150;2023-08-17T12:58:40;1.53;;;1.40;;
22357;SDS011;11346;50.150;8.150;2023-08-17T13:01:07;1.50;;;1.40;;
22357;SDS011;11346;50.150;8.150;2023-08-17T13:03:34;2.30;;;1.50;;
22357;SDS011;11346;50.150;8.150;2023-08-17T13:06:01;1.57;;;1.47;;
22357;SDS011;11346;50.150;8.150;2023-08-17T13:08:28;3.87;;;1.47;;
22357;SDS011;11346;50.150;8.150;2023-08-17T13:10:56;1.63;;;1.53;;
22357;SDS011;11346;50.150;8.150;2023-08-17T13:13:23;1.67;;;1.40;;
22357;SDS011;11346;50.150;8.150;2023-08-17T13:15:51;2.20;;;1.60;;
22357;SDS011;11346;50.150;8.150;2023-08-17T13:18:18;1.80;;;1.70;;
22357;SDS011;11346;50.150;8.150;2023-08-17T13:20:46;2.87;;;1.70;;
22357;SDS011;11346;50.150;8.150;2023-08-17T13:23:13;2.47;;;1.90;;
22357;SDS011;11346;50.150;8.150;2023-08-17T13:25:40;2.30;;;1.80;;
22357;SDS011;11346;50.150;8.150;2023-08-17T13:28:07;1.60;;;1.50;;
22357;SDS011;11346;50.150;8.150;2023-08-17T13:30:34;1.77;;;1.67;;
22357;SDS011;11346;50.150;8.150;2023-08-17T13:33:03;2.63;;;1.67;;
22357;SDS011;11346;50.150;8.150;2023-08-17T13:35:31;3.03;;;1.90;;
22357;SDS011;11346;50.150;8.150;2023-08-17T13:37:58;1.67;;;1.63;;
22357;SDS011;11346;50.150;8.150;2023-08-17T13:40:28;2.80;;;2.00;;
22357;SDS011;11346;50.150;8.150;2023-08-17T13:42:55;1.90;;;1.80;;
22357;SDS011;11346;50.150;8.150;2023-08-17T13:45:23;2.00;;;1.90;;
22357;SDS011;11346;50.150;8.150;2023-08-17T13:47:50;2.13;;;1.93;;
22357;SDS011;11346;50.150;8.150;2023-08-17T13:50:19;3.53;;;2.00;;
22357;SDS011;11346;50.150;8.150;2023-08-17T13:52:46;2.00;;;1.90;;
22357;SDS011;11346;50.150;8.150;2023-08-17T13:55:13;2.37;;;2.00;;
22357;SDS011;11346;50.150;8.150;2023-08-17T13:57:40;3.60;;;2.10;;
22357;SDS011;11346;50.150;8.150;2023-08-17T14:00:07;2.13;;;2.03;;
22357;SDS011;11346;50.150;8.150;2023-08-17T14:02:35;4.17;;;2.37;;
22357;SDS011;11346;50.150;8.150;2023-08-17T14:05:02;2.47;;;2.10;;
22357;SDS011;11346;50.150;8.150;2023-08-17T14:07:30;2.37;;;2.20;;
22357;SDS011;11346;50.150;8.150;2023-08-17T14:09:57;2.10;;;2.00;;
22357;SDS011;11346;50.150;8.150;2023-08-17T14:12:24;6.50;;;2.50;;
22357;SDS011;11346;50.150;8.150;2023-08-17T14:14:52;4.40;;;2.20;;
22357;SDS011;11346;50.150;8.150;2023-08-17T14:17:19;2.43;;;2.23;;
22357;SDS011;11346;50.150;8.150;2023-08-17T14:19:46;4.27;;;2.13;;
22357;SDS011;11346;50.150;8.150;2023-08-17T14:22:13;4.70;;;2.20;;
22357;SDS011;11346;50.150;8.150;2023-08-17T14:24:41;3.03;;;2.40;;
22357;SDS011;11346;50.150;8.150;2023-08-17T14:27:08;8.63;;;2.20;;
22357;SDS011;11346;50.150;8.150;2023-08-17T14:29:35;2.63;;;2.07;;
22357;SDS011;11346;50.150;8.150;2023-08-17T14:32:03;2.37;;;2.17;;
22357;SDS011;11346;50.150;8.150;2023-08-17T14:34:30;2.73;;;2.53;;
22357;SDS011;11346;50.150;8.150;2023-08-17T14:36:57;3.67;;;2.40;;
22357;SDS011;11346;50.150;8.150;2023-08-17T14:39:24;2.60;;;2.20;;
22357;SDS011;11346;50.150;8.150;2023-08-17T14:41:52;2.37;;;2.10;;
22357;SDS011;11346;50.150;8.150;2023-08-17T14:44:19;2.40;;;2.20;;
22357;SDS011;11346;50.150;8.150;2023-08-17T14:46:47;5.50;;;2.50;;
22357;SDS011;11346;50.150;8.150;2023-08-17T14:49:14;9.23;;;2.63;;
22357;SDS011;11346;50.150;8.150;2023-08-17T14:51:41;2.50;;;2.30;;
22357;SDS011;11346;50.150;8.150;2023-08-17T14:54:09;4.80;;;2.40;;
22357;SDS011;11346;50.150;8.150;2023-08-17T14:56:36;2.60;;;2.37;;
22357;SDS011;11346;50.150;8.150;2023-08-17T14:59:05;5.07;;;2.40;;
22357;SDS011;11346;50.150;8.150;2023-08-17T15:01:32;2.30;;;2.20;;
22357;SDS011;11346;50.150;8.150;2023-08-17T15:03:59;2.90;;;2.10;;